Time;durP1;ratioP1;P1;durP2;ratioP2;P2;SDS_P1;SDS_P2;PMS_P1;PMS_P2;Temp;Humidity;BMP_temperature;BMP_pressure;BME280_temperature;BME280_humidity;BME280_pressure;Samples;Min_cycle;Max_cycle;Signal;HPM_P1;HPM_P2
2022/11/01 00:01:31;;;;;;;;;;;;;;;;;;4962963;28;20173;-57
2022/11/01 00:03:57;;;;;;;;;;;;;;;;;;4970654;28;20052;-59
2022/11/01 00:06:22;;;;;;;;;;;;;;;;;;4965859;28;19934;-57
2022/11/01 00:08:48;;;;;;;;;;;;;;;;;;4965355;28;19929;-57
2022/11/01 00:11:14;;;;;;;;;;;;;;;;;;4964118;28;19937;-57
2022/11/01 00:13:40;;;;;;;;;;;;;;;;;;4963841;28;20172;-57
2022/11/01 00:16:05;;;;;;;;;;;;;;;;;;4967061;28;19917;-57
2022/11/01 00:18:30;;;;;;;;;;;;;;;;;;4970212;28;19922;-56
2022/11/01 00:20:55;;;;;;;;;;;;;;;;;;4961476;28;19953;-57
2022/11/01 00:23:21;;;;;;;;;;;;;;;;;;4959471;28;19925;-57
2022/11/01 00:25:46;;;;;;;;;;;;;;;;;;4963202;28;19922;-57
2022/11/01 00:28:11;;;;;;;;;;;;;;;;;;4960511;28;19929;-57
2022/11/01 00:30:38;;;;;;;;;;;;;;;;;;4960723;28;19918;-57
2022/11/01 00:33:03;;;;;;;;;;;;;;;;;;4960096;28;19999;-57
2022/11/01 00:35:30;;;;;;;;;;;;;;;;;;4966725;28;19973;-57
2022/11/01 00:37:55;;;;;;;;;;;;;;;;;;4955179;28;19943;-56
2022/11/01 00:40:20;;;;;;;;;;;;;;;;;;4964571;28;20165;-57
2022/11/01 00:42:46;;;;;;;;;;;;;;;;;;4961089;28;19926;-57
2022/11/01 00:45:11;;;;;;;;;;;;;;;;;;4964222;28;19922;-57
2022/11/01 00:47:36;;;;;;;;;;;;;;;;;;4968087;28;19930;-57
2022/11/01 00:50:02;;;;;;;;;;;;;;;;;;4966890;28;20408;-57
2022/11/01 00:52:27;;;;;;;;;;;;;;;;;;4963356;28;19926;-57
2022/11/01 00:54:52;;;;;;;;;;;;;;;;;;4961632;28;19922;-57
2022/11/01 00:57:18;;;;;;;;;;;;;;;;;;4962434;28;20008;-56
2022/11/01 00:59:43;;;;;;;;;;;;;;;;;;4963756;28;19922;-57
2022/11/01 01:02:08;;;;;;;;;;;;;;;;;;4968006;28;19936;-56
2022/11/01 01:04:33;;;;;;;;;;;;;;;;;;4966969;28;20338;-57
2022/11/01 01:06:59;;;;;;;;;;;;;;;;;;4972151;28;19929;-57
2022/11/01 01:09:24;;;;;;;;;;;;;;;;;;4966655;28;19929;-57
2022/11/01 01:11:49;;;;;;;;;;;;;;;;;;4963625;28;19929;-57
2022/11/01 01:14:14;;;;;;;;;;;;;;;;;;4967148;28;19925;-56
2022/11/01 01:16:40;;;;;;;;;;;;;;;;;;4967114;28;19918;-57
2022/11/01 01:19:06;;;;;;;;;;;;;;;;;;4968404;28;19925;-57
2022/11/01 01:21:31;;;;;;;;;;;;;;;;;;4964844;28;20496;-56
2022/11/01 01:23:56;;;;;;;;;;;;;;;;;;4966619;28;20110;-57
2022/11/01 01:26:22;;;;;;;;;;;;;;;;;;4969356;28;19933;-57
2022/11/01 01:28:47;;;;;;;;;;;;;;;;;;4967290;28;19941;-58
2022/11/01 01:31:12;;;;;;;;;;;;;;;;;;4967941;28;19922;-57
2022/11/01 01:33:38;;;;;;;;;;;;;;;;;;4958938;28;19976;-57
2022/11/01 01:36:04;;;;;;;;;;;;;;;;;;4965533;28;19918;-57
2022/11/01 01:38:30;;;;;;;;;;;;;;;;;;4963028;28;19983;-57
2022/11/01 01:41:54;;;;;;;;;;;;;;;;;;4968451;28;20443;-57
2022/11/01 01:43:42;;;;;;;;;;;;;;;;;;4961477;28;19918;-57
2022/11/01 01:46:09;;;;;;;;;;;;;;;;;;4961204;28;19923;-57
2022/11/01 01:48:36;;;;;;;;;;;;;;;;;;4965390;28;20350;-57
2022/11/01 01:51:03;;;;;;;;;;;;;;;;;;4964006;28;19926;-57
2022/11/01 01:53:28;;;;;;;;;;;;;;;;;;4959868;28;19926;-56
2022/11/01 01:56:01;;;;;;;;;;;;;;;;;;4964961;28;19926;-57
2022/11/01 01:58:29;;;;;;;;;;;;;;;;;;4968377;28;19922;-57
2022/11/01 02:00:54;;;;;;;;;;;;;;;;;;4966836;28;20441;-56
2022/11/01 02:03:21;;;;;;;;;;;;;;;;;;4968096;28;19918;-56
2022/11/01 02:05:53;;;;;;;;;;;;;;;;;;4966771;28;20020;-57
2022/11/01 02:08:26;;;;;;;;;;;;;;;;;;4966608;28;19914;-56
2022/11/01 02:10:52;;;;;;;;;;;;;;;;;;4964727;28;20009;-56
2022/11/01 02:13:18;;;;;;;;;;;;;;;;;;4963234;28;19918;-57
2022/11/01 02:15:50;;;;;;;;;;;;;;;;;;4991830;28;19924;-57
2022/11/01 02:18:31;;;;;;;;;;;;;;;;;;4968416;28;20380;-56
2022/11/01 02:21:00;;;;;;;;;;;;;;;;;;4964159;28;20000;-56
2022/11/01 02:23:44;;;;;;;;;;;;;;;;;;4965299;28;19926;-57
2022/11/01 02:26:12;;;;;;;;;;;;;;;;;;4963525;28;19926;-56
2022/11/01 02:28:50;;;;;;;;;;;;;;;;;;4970433;28;19925;-58
2022/11/01 02:31:15;;;;;;;;;;;;;;;;;;4964299;28;19918;-57
2022/11/01 02:33:46;;;;;;;;;;;;;;;;;;4967920;28;19914;-57
2022/11/01 02:36:26;;;;;;;;;;;;;;;;;;4963181;28;19926;-57
2022/11/01 02:38:57;;;;;;;;;;;;;;;;;;4967808;28;20336;-56
2022/11/01 02:41:24;;;;;;;;;;;;;;;;;;4971699;28;19947;-56
2022/11/01 02:43:53;;;;;;;;;;;;;;;;;;4968234;28;19914;-56
2022/11/01 02:49:03;;;;;;;;;;;;;;;;;;4966062;28;20036;-57
2022/11/01 02:51:28;;;;;;;;;;;;;;;;;;4967122;28;20055;-57
2022/11/01 02:53:54;;;;;;;;;;;;;;;;;;4972946;28;20008;-57
2022/11/01 02:56:21;;;;;;;;;;;;;;;;;;4961474;28;19914;-57
2022/11/01 02:58:47;;;;;;;;;;;;;;;;;;4971531;28;19975;-56
2022/11/01 03:01:15;;;;;;;;;;;;;;;;;;4969572;28;20337;-56
2022/11/01 03:03:42;;;;;;;;;;;;;;;;;;4970222;28;19923;-56
2022/11/01 03:06:19;;;;;;;;;;;;;;;;;;4968031;28;20012;-56
2022/11/01 03:08:47;;;;;;;;;;;;;;;;;;4966414;28;19925;-56
2022/11/01 03:11:12;;;;;;;;;;;;;;;;;;4961493;28;20091;-57
2022/11/01 03:13:43;;;;;;;;;;;;;;;;;;4966954;28;19919;-56
2022/11/01 03:16:11;;;;;;;;;;;;;;;;;;4959471;28;20346;-56
2022/11/01 03:18:39;;;;;;;;;;;;;;;;;;4979149;28;19920;-57
2022/11/01 03:21:14;;;;;;;;;;;;;;;;;;4988392;28;19932;-56
2022/11/01 03:23:46;;;;;;;;;;;;;;;;;;4963211;28;20349;-57
2022/11/01 03:26:12;;;;;;;;;;;;;;;;;;4963543;28;19922;-57
2022/11/01 03:28:39;;;;;;;;;;;;;;;;;;4965748;28;19923;-56
2022/11/01 03:31:07;;;;;;;;;;;;;;;;;;4967249;28;19983;-57
2022/11/01 03:33:36;;;;;;;;;;;;;;;;;;4976239;28;19981;-57
2022/11/01 03:36:02;;;;;;;;;;;;;;;;;;4963756;28;20303;-56
2022/11/01 03:38:31;;;;;;;;;;;;;;;;;;4960312;28;19925;-57
2022/11/01 03:41:00;;;;;;;;;;;;;;;;;;4963621;28;19926;-57
2022/11/01 03:43:26;;;;;;;;;;;;;;;;;;4969910;28;19925;-57
2022/11/01 03:45:52;;;;;;;;;;;;;;;;;;4964306;28;19930;-56
2022/11/01 03:48:17;;;;;;;;;;;;;;;;;;4968435;28;19923;-56
2022/11/01 03:50:55;;;;;;;;;;;;;;;;;;4969989;28;19990;-57
2022/11/01 03:53:20;;;;;;;;;;;;;;;;;;4968099;28;19958;-56
2022/11/01 03:55:45;;;;;;;;;;;;;;;;;;4970332;28;19991;-57
2022/11/01 03:58:11;;;;;;;;;;;;;;;;;;4971503;28;19971;-56
2022/11/01 04:00:37;;;;;;;;;;;;;;;;;;4967585;28;20322;-57
2022/11/01 04:03:03;;;;;;;;;;;;;;;;;;4963168;28;19932;-56
2022/11/01 04:05:29;;;;;;;;;;;;;;;;;;4963773;28;19918;-57
2022/11/01 04:07:55;;;;;;;;;;;;;;;;;;4965581;28;19930;-57
2022/11/01 04:10:21;;;;;;;;;;;;;;;;;;4966364;28;20294;-57
2022/11/01 04:12:47;;;;;;;;;;;;;;;;;;4983169;28;19953;-56
2022/11/01 04:20:48;;;;;;;;;;;;;;;;;;4970705;28;19977;-56
2022/11/01 04:23:14;;;;;;;;;;;;;;;;;;4969614;28;19958;-57
2022/11/01 04:25:40;;;;;;;;;;;;;;;;;;4968436;28;20355;-57
2022/11/01 04:28:05;;;;;;;;;;;;;;;;;;4975548;28;19924;-57
2022/11/01 04:30:30;;;;;;;;;;;;;;;;;;4968800;28;20303;-57
2022/11/01 04:32:55;;;;;;;;;;;;;;;;;;4973451;28;19955;-57
2022/11/01 04:35:21;;;;;;;;;;;;;;;;;;4967048;28;20331;-57
2022/11/01 04:37:47;;;;;;;;;;;;;;;;;;4965695;28;20483;-57
2022/11/01 04:40:12;;;;;;;;;;;;;;;;;;4968891;28;19922;-57
2022/11/01 04:42:38;;;;;;;;;;;;;;;;;;4963792;28;20409;-56
2022/11/01 04:45:04;;;;;;;;;;;;;;;;;;4964481;28;19918;-57
2022/11/01 04:47:30;;;;;;;;;;;;;;;;;;4969526;28;19922;-57
2022/11/01 04:49:55;;;;;;;;;;;;;;;;;;4965550;28;20375;-57
2022/11/01 04:52:20;;;;;;;;;;;;;;;;;;4965177;28;19922;-57
2022/11/01 04:54:46;;;;;;;;;;;;;;;;;;4976484;28;20448;-57
2022/11/01 04:57:21;;;;;;;;;;;;;;;;;;4975280;28;19944;-56
2022/11/01 04:59:47;;;;;;;;;;;;;;;;;;4969458;28;19964;-57
2022/11/01 05:02:12;;;;;;;;;;;;;;;;;;4960972;28;19923;-57
2022/11/01 05:04:38;;;;;;;;;;;;;;;;;;4968790;28;19922;-58
2022/11/01 05:07:03;;;;;;;;;;;;;;;;;;4972604;28;19922;-58
2022/11/01 05:09:28;;;;;;;;;;;;;;;;;;4963317;28;20418;-58
2022/11/01 05:11:53;;;;;;;;;;;;;;;;;;4979908;28;19925;-57
2022/11/01 05:14:19;;;;;;;;;;;;;;;;;;4971416;28;20354;-59
2022/11/01 05:16:44;;;;;;;;;;;;;;;;;;4967723;28;19918;-59
2022/11/01 05:19:10;;;;;;;;;;;;;;;;;;4970810;28;19918;-58
2022/11/01 05:21:35;;;;;;;;;;;;;;;;;;4969384;28;19960;-58
2022/11/01 05:24:00;;;;;;;;;;;;;;;;;;4970094;28;20299;-58
2022/11/01 05:26:26;;;;;;;;;;;;;;;;;;4962679;28;19948;-58
2022/11/01 05:28:52;;;;;;;;;;;;;;;;;;4970883;28;20365;-59
2022/11/01 05:31:17;;;;;;;;;;;;;;;;;;4962326;28;20392;-58
2022/11/01 05:33:42;;;;;;;;;;;;;;;;;;4965899;28;19922;-59
2022/11/01 05:36:08;;;;;;;;;;;;;;;;;;4972695;28;19918;-59
2022/11/01 05:38:33;;;;;;;;;;;;;;;;;;4966675;28;19923;-58
2022/11/01 05:41:00;;;;;;;;;;;;;;;;;;4967221;28;19921;-59
2022/11/01 05:43:25;;;;;;;;;;;;;;;;;;4968894;28;20364;-58
2022/11/01 05:45:50;;;;;;;;;;;;;;;;;;4963422;28;19969;-58
2022/11/01 05:48:16;;;;;;;;;;;;;;;;;;4966676;28;19923;-58
2022/11/01 05:50:42;;;;;;;;;;;;;;;;;;4966552;28;19918;-58
2022/11/01 05:53:08;;;;;;;;;;;;;;;;;;4971284;28;19944;-58
2022/11/01 05:55:35;;;;;;;;;;;;;;;;;;4965828;28;19934;-59
2022/11/01 05:58:00;;;;;;;;;;;;;;;;;;4969336;28;19919;-58
2022/11/01 06:00:26;;;;;;;;;;;;;;;;;;4971547;28;20383;-57
2022/11/01 06:02:51;;;;;;;;;;;;;;;;;;4971282;28;19914;-59
2022/11/01 06:05:16;;;;;;;;;;;;;;;;;;4968275;28;19914;-59
2022/11/01 06:07:41;;;;;;;;;;;;;;;;;;4969660;28;20414;-58
2022/11/01 06:10:07;;;;;;;;;;;;;;;;;;4972502;28;19919;-58
2022/11/01 06:12:32;;;;;;;;;;;;;;;;;;4967708;28;20422;-58
2022/11/01 06:14:58;;;;;;;;;;;;;;;;;;4967081;28;19918;-58
2022/11/01 06:17:23;;;;;;;;;;;;;;;;;;4967368;28;19971;-59
2022/11/01 06:19:48;;;;;;;;;;;;;;;;;;4963708;28;19966;-59
2022/11/01 06:22:14;;;;;;;;;;;;;;;;;;4965254;28;19926;-58
2022/11/01 06:24:39;;;;;;;;;;;;;;;;;;4967387;28;20433;-58
2022/11/01 06:27:04;;;;;;;;;;;;;;;;;;4969257;28;19926;-57
2022/11/01 06:29:29;;;;;;;;;;;;;;;;;;4971298;28;19945;-58
2022/11/01 06:31:55;;;;;;;;;;;;;;;;;;4969747;28;19925;-58
2022/11/01 06:34:20;;;;;;;;;;;;;;;;;;4967063;28;19976;-59
2022/11/01 06:36:45;;;;;;;;;;;;;;;;;;4971156;28;19918;-58
2022/11/01 06:39:11;;;;;;;;;;;;;;;;;;4961101;28;19956;-58
2022/11/01 06:41:36;;;;;;;;;;;;;;;;;;4964289;28;20280;-58
2022/11/01 06:44:01;;;;;;;;;;;;;;;;;;4968362;28;19922;-59
2022/11/01 06:46:26;;;;;;;;;;;;;;;;;;4964731;28;19944;-58
2022/11/01 06:48:52;;;;;;;;;;;;;;;;;;4965496;28;19926;-59
2022/11/01 06:51:17;;;;;;;;;;;;;;;;;;4971650;28;20299;-58
2022/11/01 06:53:42;;;;;;;;;;;;;;;;;;4962157;28;19923;-59
2022/11/01 06:56:08;;;;;;;;;;;;;;;;;;4965353;28;19918;-58
2022/11/01 06:58:33;;;;;;;;;;;;;;;;;;4964202;28;19924;-58
2022/11/01 07:01:00;;;;;;;;;;;;;;;;;;4979417;28;20350;-58
2022/11/01 07:03:25;;;;;;;;;;;;;;;;;;4972475;28;20001;-57
2022/11/01 07:05:50;;;;;;;;;;;;;;;;;;4971330;28;20020;-59
2022/11/01 07:08:16;;;;;;;;;;;;;;;;;;4969722;28;19945;-59
2022/11/01 07:10:41;;;;;;;;;;;;;;;;;;4975373;28;19922;-59
2022/11/01 07:13:08;;;;;;;;;;;;;;;;;;4969202;28;20273;-59
2022/11/01 07:15:34;;;;;;;;;;;;;;;;;;4962106;28;19933;-58
2022/11/01 07:18:00;;;;;;;;;;;;;;;;;;4956890;28;19918;-58
2022/11/01 07:20:26;;;;;;;;;;;;;;;;;;4965315;28;20040;-59
2022/11/01 07:22:58;;;;;;;;;;;;;;;;;;4968465;28;20012;-58
2022/11/01 07:25:23;;;;;;;;;;;;;;;;;;4992963;28;19916;-59
2022/11/01 07:27:48;;;;;;;;;;;;;;;;;;4968240;28;19922;-59
2022/11/01 07:30:14;;;;;;;;;;;;;;;;;;4979654;28;19917;-59
2022/11/01 07:32:39;;;;;;;;;;;;;;;;;;5012496;28;20008;-59
2022/11/01 07:35:04;;;;;;;;;;;;;;;;;;4969108;28;19965;-58
2022/11/01 07:37:30;;;;;;;;;;;;;;;;;;4983925;28;19953;-59
2022/11/01 07:39:55;;;;;;;;;;;;;;;;;;4962389;28;19922;-59
2022/11/01 07:42:20;;;;;;;;;;;;;;;;;;4977539;28;19963;-59
2022/11/01 07:44:45;;;;;;;;;;;;;;;;;;4993533;28;19925;-59
2022/11/01 07:47:11;;;;;;;;;;;;;;;;;;4966623;28;19922;-59
2022/11/01 07:49:36;;;;;;;;;;;;;;;;;;4974350;28;19936;-59
2022/11/01 07:52:03;;;;;;;;;;;;;;;;;;4963143;28;19918;-59
2022/11/01 07:54:28;;;;;;;;;;;;;;;;;;4965726;28;20051;-59
2022/11/01 07:56:53;;;;;;;;;;;;;;;;;;4974374;28;19948;-59
2022/11/01 07:59:18;;;;;;;;;;;;;;;;;;4957339;28;19918;-58
2022/11/01 08:01:44;;;;;;;;;;;;;;;;;;4964883;28;19925;-59
2022/11/01 08:04:09;;;;;;;;;;;;;;;;;;4979965;28;20290;-59
2022/11/01 08:06:34;;;;;;;;;;;;;;;;;;4961232;28;19922;-59
2022/11/01 08:09:00;;;;;;;;;;;;;;;;;;4978478;28;19918;-58
2022/11/01 08:11:25;;;;;;;;;;;;;;;;;;4957559;28;19973;-59
2022/11/01 08:13:50;;;;;;;;;;;;;;;;;;4966517;28;19978;-59
2022/11/01 08:16:17;;;;;;;;;;;;;;;;;;4969627;28;20289;-58
2022/11/01 08:18:42;;;;;;;;;;;;;;;;;;4976134;28;19919;-58
2022/11/01 08:21:07;;;;;;;;;;;;;;;;;;4974281;28;19918;-58
2022/11/01 08:23:33;;;;;;;;;;;;;;;;;;4962237;28;19944;-58
2022/11/01 08:25:58;;;;;;;;;;;;;;;;;;4991714;28;20391;-59
2022/11/01 08:28:23;;;;;;;;;;;;;;;;;;4981467;28;20464;-58
2022/11/01 08:30:49;;;;;;;;;;;;;;;;;;4980695;28;20379;-59
2022/11/01 08:33:14;;;;;;;;;;;;;;;;;;4994166;28;19916;-61
2022/11/01 08:35:39;;;;;;;;;;;;;;;;;;4961479;28;20307;-59
2022/11/01 08:38:05;;;;;;;;;;;;;;;;;;4975135;28;19926;-59
2022/11/01 08:40:30;;;;;;;;;;;;;;;;;;4966968;28;19914;-59
2022/11/01 08:42:56;;;;;;;;;;;;;;;;;;4963506;28;19965;-58
2022/11/01 08:45:22;;;;;;;;;;;;;;;;;;4966186;28;19918;-59
2022/11/01 08:47:47;;;;;;;;;;;;;;;;;;4962619;28;19926;-58
2022/11/01 08:50:14;;;;;;;;;;;;;;;;;;4963335;28;20025;-58
2022/11/01 08:52:40;;;;;;;;;;;;;;;;;;4966191;28;20273;-59
2022/11/01 08:55:06;;;;;;;;;;;;;;;;;;4965909;28;19925;-59
2022/11/01 08:57:31;;;;;;;;;;;;;;;;;;4974358;28;20363;-59
2022/11/01 08:59:56;;;;;;;;;;;;;;;;;;4966852;28;19950;-58
2022/11/01 09:02:22;;;;;;;;;;;;;;;;;;4967101;28;19925;-59
2022/11/01 09:04:47;;;;;;;;;;;;;;;;;;4972133;28;19919;-59
2022/11/01 09:07:12;;;;;;;;;;;;;;;;;;4966969;28;19934;-58
2022/11/01 09:09:37;;;;;;;;;;;;;;;;;;4973138;28;20000;-59
2022/11/01 09:12:04;;;;;;;;;;;;;;;;;;4964605;28;20129;-59
2022/11/01 09:14:29;;;;;;;;;;;;;;;;;;4965883;28;20019;-59
2022/11/01 09:16:54;;;;;;;;;;;;;;;;;;4962049;28;20149;-59
2022/11/01 09:19:19;;;;;;;;;;;;;;;;;;4964958;28;20360;-59
2022/11/01 09:21:45;;;;;;;;;;;;;;;;;;4965892;28;19918;-59
2022/11/01 09:24:11;;;;;;;;;;;;;;;;;;4969155;28;19915;-59
2022/11/01 09:26:36;;;;;;;;;;;;;;;;;;4965661;28;20288;-59
2022/11/01 09:29:02;;;;;;;;;;;;;;;;;;4966811;28;19932;-59
2022/11/01 09:31:28;;;;;;;;;;;;;;;;;;4966585;28;19914;-59
2022/11/01 09:33:54;;;;;;;;;;;;;;;;;;4965657;28;19975;-59
2022/11/01 09:36:20;;;;;;;;;;;;;;;;;;4962145;28;20383;-59
2022/11/01 09:38:45;;;;;;;;;;;;;;;;;;4958896;28;19933;-59
2022/11/01 09:41:22;;;;;;;;;;;;;;;;;;4963568;28;20060;-59
2022/11/01 09:43:48;;;;;;;;;;;;;;;;;;4966146;28;19918;-58
2022/11/01 09:46:15;;;;;;;;;;;;;;;;;;4969214;28;19937;-59
2022/11/01 09:48:41;;;;;;;;;;;;;;;;;;4968177;28;19925;-59
2022/11/01 09:51:09;;;;;;;;;;;;;;;;;;4968757;28;19919;-59
2022/11/01 09:53:34;;;;;;;;;;;;;;;;;;4966244;28;19922;-59
2022/11/01 09:56:08;;;;;;;;;;;;;;;;;;4969889;28;20296;-59
2022/11/01 09:58:39;;;;;;;;;;;;;;;;;;4968573;28;19919;-59
2022/11/01 10:01:24;;;;;;;;;;;;;;;;;;4961682;28;19957;-59
2022/11/01 10:04:16;;;;;;;;;;;;;;;;;;4963454;28;19918;-59
2022/11/01 10:07:03;;;;;;;;;;;;;;;;;;4968582;28;19922;-59
2022/11/01 10:09:47;;;;;;;;;;;;;;;;;;4967732;28;20044;-59
2022/11/01 10:12:15;;;;;;;;;;;;;;;;;;4962527;28;19976;-59
2022/11/01 10:14:43;;;;;;;;;;;;;;;;;;4961321;28;19918;-59
2022/11/01 10:17:13;;;;;;;;;;;;;;;;;;4967961;28;19975;-59
2022/11/01 10:19:40;;;;;;;;;;;;;;;;;;4963802;28;20380;-59
2022/11/01 10:22:10;;;;;;;;;;;;;;;;;;4962820;28;19914;-59
2022/11/01 10:24:44;;;;;;;;;;;;;;;;;;4965458;28;19918;-59
2022/11/01 10:27:19;;;;;;;;;;;;;;;;;;4962911;28;19922;-58
2022/11/01 10:29:50;;;;;;;;;;;;;;;;;;4962225;28;19919;-58
2022/11/01 10:32:31;;;;;;;;;;;;;;;;;;4969785;28;20334;-59
2022/11/01 10:34:59;;;;;;;;;;;;;;;;;;4962114;28;19963;-59
2022/11/01 10:37:30;;;;;;;;;;;;;;;;;;4963187;28;20012;-59
2022/11/01 10:39:59;;;;;;;;;;;;;;;;;;4965153;28;20293;-59
2022/11/01 10:42:26;;;;;;;;;;;;;;;;;;4959988;28;19918;-60
2022/11/01 10:44:54;;;;;;;;;;;;;;;;;;4965993;28;20333;-59
2022/11/01 10:47:20;;;;;;;;;;;;;;;;;;4970077;28;19926;-59
2022/11/01 10:49:48;;;;;;;;;;;;;;;;;;4967710;28;20447;-60
2022/11/01 10:52:16;;;;;;;;;;;;;;;;;;4962883;28;19991;-58
2022/11/01 10:54:42;;;;;;;;;;;;;;;;;;4962852;28;19919;-59
2022/11/01 10:57:13;;;;;;;;;;;;;;;;;;4966775;28;19925;-59
2022/11/01 10:59:43;;;;;;;;;;;;;;;;;;4967230;28;19918;-59
2022/11/01 11:02:21;;;;;;;;;;;;;;;;;;4962252;28;19918;-59
2022/11/01 11:04:48;;;;;;;;;;;;;;;;;;4962288;28;20665;-60
2022/11/01 11:07:15;;;;;;;;;;;;;;;;;;4960937;28;19926;-58
2022/11/01 11:09:40;;;;;;;;;;;;;;;;;;4958370;28;19918;-59
2022/11/01 11:12:09;;;;;;;;;;;;;;;;;;4966395;28;19918;-59
2022/11/01 11:14:35;;;;;;;;;;;;;;;;;;4963245;28;20013;-59
2022/11/01 11:17:01;;;;;;;;;;;;;;;;;;4965747;28;20016;-59
2022/11/01 11:19:30;;;;;;;;;;;;;;;;;;4965088;28;20005;-60
2022/11/01 11:21:57;;;;;;;;;;;;;;;;;;4960613;28;19922;-59
2022/11/01 11:24:30;;;;;;;;;;;;;;;;;;4963692;28;20441;-59
2022/11/01 11:26:56;;;;;;;;;;;;;;;;;;4969885;28;19944;-59
2022/11/01 11:30:00;;;;;;;;;;;;;;;;;;4977491;28;20382;-59
2022/11/01 11:32:27;;;;;;;;;;;;;;;;;;4976954;28;20401;-59
2022/11/01 11:35:04;;;;;;;;;;;;;;;;;;4966588;28;20000;-59
2022/11/01 11:37:31;;;;;;;;;;;;;;;;;;4960534;28;19918;-59
2022/11/01 11:40:01;;;;;;;;;;;;;;;;;;4965165;28;19922;-59
2022/11/01 11:42:26;;;;;;;;;;;;;;;;;;4964450;28;20102;-60
2022/11/01 11:45:10;;;;;;;;;;;;;;;;;;4968159;28;20468;-59
2022/11/01 11:47:36;;;;;;;;;;;;;;;;;;4964485;28;20284;-59
2022/11/01 11:50:15;;;;;;;;;;;;;;;;;;4972482;28;20338;-59
2022/11/01 11:52:41;;;;;;;;;;;;;;;;;;4966253;28;19918;-59
2022/11/01 11:55:25;;;;;;;;;;;;;;;;;;4965396;28;19926;-59
2022/11/01 11:57:51;;;;;;;;;;;;;;;;;;4964116;28;19926;-59
2022/11/01 12:00:21;;;;;;;;;;;;;;;;;;4965275;28;19975;-59
2022/11/01 12:02:46;;;;;;;;;;;;;;;;;;4963729;28;19964;-59
2022/11/01 12:05:21;;;;;;;;;;;;;;;;;;4968618;28;19918;-59
2022/11/01 12:07:50;;;;;;;;;;;;;;;;;;4969495;28;19927;-60
2022/11/01 12:10:33;;;;;;;;;;;;;;;;;;4974837;28;19925;-59
2022/11/01 12:12:59;;;;;;;;;;;;;;;;;;4959353;28;19917;-59
2022/11/01 12:15:34;;;;;;;;;;;;;;;;;;4957860;28;19926;-60
2022/11/01 12:18:10;;;;;;;;;;;;;;;;;;4967188;28;19957;-59
2022/11/01 12:20:37;;;;;;;;;;;;;;;;;;4965475;28;19919;-60
2022/11/01 12:23:06;;;;;;;;;;;;;;;;;;4962412;28;19925;-59
2022/11/01 12:25:34;;;;;;;;;;;;;;;;;;4970203;28;19930;-59
2022/11/01 12:28:01;;;;;;;;;;;;;;;;;;4964226;28;20415;-59
2022/11/01 12:30:29;;;;;;;;;;;;;;;;;;4960716;28;20008;-60
2022/11/01 12:32:58;;;;;;;;;;;;;;;;;;4972641;28;19926;-59
2022/11/01 12:35:26;;;;;;;;;;;;;;;;;;4969512;28;19926;-58
2022/11/01 12:38:21;;;;;;;;;;;;;;;;;;4962935;28;20001;-59
2022/11/01 12:40:49;;;;;;;;;;;;;;;;;;4958792;28;19958;-60
2022/11/01 12:43:20;;;;;;;;;;;;;;;;;;4968203;28;19926;-59
2022/11/01 12:45:45;;;;;;;;;;;;;;;;;;4975286;28;20052;-59
2022/11/01 12:48:15;;;;;;;;;;;;;;;;;;4965130;28;20013;-60
2022/11/01 12:50:49;;;;;;;;;;;;;;;;;;4964902;28;20383;-60
2022/11/01 12:53:16;;;;;;;;;;;;;;;;;;4966083;28;19929;-59
2022/11/01 12:55:42;;;;;;;;;;;;;;;;;;4966801;28;19932;-59
2022/11/01 12:58:12;;;;;;;;;;;;;;;;;;4969614;28;20012;-59
2022/11/01 13:00:44;;;;;;;;;;;;;;;;;;4969289;28;19919;-60
2022/11/01 13:03:15;;;;;;;;;;;;;;;;;;4965548;28;19968;-59
2022/11/01 13:05:55;;;;;;;;;;;;;;;;;;4960443;28;19926;-60
2022/11/01 13:08:40;;;;;;;;;;;;;;;;;;4964171;28;20416;-59
2022/11/01 13:11:18;;;;;;;;;;;;;;;;;;4962675;28;19976;-59
2022/11/01 13:13:49;;;;;;;;;;;;;;;;;;4966765;28;20001;-59
2022/11/01 13:16:26;;;;;;;;;;;;;;;;;;4968111;28;19926;-59
2022/11/01 13:19:02;;;;;;;;;;;;;;;;;;4967485;28;19921;-60
2022/11/01 13:21:34;;;;;;;;;;;;;;;;;;4963112;28;20358;-60
2022/11/01 13:24:11;;;;;;;;;;;;;;;;;;4977725;28;19925;-59
2022/11/01 13:26:49;;;;;;;;;;;;;;;;;;4968542;28;19944;-60
2022/11/01 13:29:17;;;;;;;;;;;;;;;;;;4973957;28;19914;-60
2022/11/01 13:32:02;;;;;;;;;;;;;;;;;;4968637;28;19925;-59
2022/11/01 13:35:06;;;;;;;;;;;;;;;;;;4971192;28;19964;-59
2022/11/01 13:37:48;;;;;;;;;;;;;;;;;;4980841;28;19922;-60
2022/11/01 13:40:14;;;;;;;;;;;;;;;;;;4973608;28;19919;-59
2022/11/01 13:42:42;;;;;;;;;;;;;;;;;;4963639;28;19926;-58
2022/11/01 13:45:26;;;;;;;;;;;;;;;;;;4967863;28;19924;-60
2022/11/01 13:47:51;;;;;;;;;;;;;;;;;;4962297;28;19976;-60
2022/11/01 13:50:23;;;;;;;;;;;;;;;;;;4968600;28;20348;-63
2022/11/01 13:52:53;;;;;;;;;;;;;;;;;;4966312;28;20346;-63
2022/11/01 13:55:24;;;;;;;;;;;;;;;;;;4965086;28;19941;-59
2022/11/01 13:57:49;;;;;;;;;;;;;;;;;;4971212;28;20383;-59
2022/11/01 14:00:35;;;;;;;;;;;;;;;;;;4967269;28;20013;-60
2022/11/01 14:03:14;;;;;;;;;;;;;;;;;;4968573;28;19972;-58
2022/11/01 14:05:39;;;;;;;;;;;;;;;;;;4964253;28;19918;-60
2022/11/01 14:08:09;;;;;;;;;;;;;;;;;;4970647;28;19922;-59
2022/11/01 14:10:35;;;;;;;;;;;;;;;;;;4964652;28;19926;-60
2022/11/01 14:13:06;;;;;;;;;;;;;;;;;;4966906;28;21495;-60
2022/11/01 14:15:38;;;;;;;;;;;;;;;;;;4968220;28;19929;-60
2022/11/01 14:18:10;;;;;;;;;;;;;;;;;;4962749;28;20181;-59
2022/11/01 14:20:42;;;;;;;;;;;;;;;;;;4971910;28;19918;-60
2022/11/01 14:23:28;;;;;;;;;;;;;;;;;;4964774;28;19922;-59
2022/11/01 14:26:12;;;;;;;;;;;;;;;;;;4970075;28;19930;-59
2022/11/01 14:28:41;;;;;;;;;;;;;;;;;;4964693;28;19929;-59
2022/11/01 14:31:07;;;;;;;;;;;;;;;;;;4962570;28;19941;-60
2022/11/01 14:33:32;;;;;;;;;;;;;;;;;;4964839;28;19921;-58
2022/11/01 14:35:58;;;;;;;;;;;;;;;;;;4967192;28;19933;-59
2022/11/01 14:38:30;;;;;;;;;;;;;;;;;;4963856;28;20009;-59
2022/11/01 14:40:57;;;;;;;;;;;;;;;;;;4967761;28;19918;-60
2022/11/01 14:43:33;;;;;;;;;;;;;;;;;;4978832;28;19968;-59
2022/11/01 14:46:01;;;;;;;;;;;;;;;;;;4972378;28;19922;-59
2022/11/01 14:48:38;;;;;;;;;;;;;;;;;;4968711;28;19962;-59
2022/11/01 14:51:24;;;;;;;;;;;;;;;;;;4967675;28;20288;-59
2022/11/01 14:53:54;;;;;;;;;;;;;;;;;;4960960;28;19922;-60
2022/11/01 14:56:21;;;;;;;;;;;;;;;;;;4961177;28;20016;-60
2022/11/01 14:58:47;;;;;;;;;;;;;;;;;;4971721;28;19926;-59
2022/11/01 15:01:14;;;;;;;;;;;;;;;;;;4975465;28;19925;-59
2022/11/01 15:03:45;;;;;;;;;;;;;;;;;;4964565;28;20280;-60
2022/11/01 15:06:19;;;;;;;;;;;;;;;;;;4966605;28;20508;-59
2022/11/01 15:08:44;;;;;;;;;;;;;;;;;;4963496;28;19919;-59
2022/11/01 15:11:10;;;;;;;;;;;;;;;;;;4967053;28;20327;-59
2022/11/01 15:13:39;;;;;;;;;;;;;;;;;;4969401;28;19918;-59
2022/11/01 15:16:11;;;;;;;;;;;;;;;;;;4968593;28;19961;-59
2022/11/01 15:18:40;;;;;;;;;;;;;;;;;;4965544;28;19918;-59
2022/11/01 15:21:05;;;;;;;;;;;;;;;;;;4966619;28;19918;-59
2022/11/01 15:23:35;;;;;;;;;;;;;;;;;;4970497;28;20417;-59
2022/11/01 15:26:08;;;;;;;;;;;;;;;;;;4971912;28;20337;-59
2022/11/01 15:28:36;;;;;;;;;;;;;;;;;;4968729;28;20315;-59
2022/11/01 15:31:02;;;;;;;;;;;;;;;;;;4960845;28;19972;-59
2022/11/01 15:33:31;;;;;;;;;;;;;;;;;;4960098;28;20403;-59
2022/11/01 15:36:01;;;;;;;;;;;;;;;;;;4959579;28;19918;-59
2022/11/01 15:38:28;;;;;;;;;;;;;;;;;;4968981;28;20005;-59
2022/11/01 15:40:53;;;;;;;;;;;;;;;;;;4970685;28;19940;-59
2022/11/01 15:43:20;;;;;;;;;;;;;;;;;;4965041;28;20384;-59
2022/11/01 15:45:55;;;;;;;;;;;;;;;;;;4963406;28;19919;-60
2022/11/01 15:48:23;;;;;;;;;;;;;;;;;;4960644;28;19922;-60
2022/11/01 15:51:03;;;;;;;;;;;;;;;;;;4967994;28;20392;-60
2022/11/01 15:53:30;;;;;;;;;;;;;;;;;;4960273;28;19927;-59
2022/11/01 15:55:59;;;;;;;;;;;;;;;;;;4968356;28;19957;-60
2022/11/01 15:58:29;;;;;;;;;;;;;;;;;;4960175;28;19922;-59
2022/11/01 16:01:02;;;;;;;;;;;;;;;;;;4971326;28;20402;-59
2022/11/01 16:03:33;;;;;;;;;;;;;;;;;;4970499;28;19923;-59
2022/11/01 16:06:00;;;;;;;;;;;;;;;;;;4966456;28;19925;-59
2022/11/01 16:08:31;;;;;;;;;;;;;;;;;;4965226;28;20013;-59
2022/11/01 16:10:57;;;;;;;;;;;;;;;;;;4973070;28;19963;-59
2022/11/01 16:13:23;;;;;;;;;;;;;;;;;;4964003;28;19922;-59
2022/11/01 16:15:58;;;;;;;;;;;;;;;;;;4970081;28;19918;-59
2022/11/01 16:18:24;;;;;;;;;;;;;;;;;;4966501;28;19918;-59
2022/11/01 16:20:59;;;;;;;;;;;;;;;;;;4968880;28;19922;-59
2022/11/01 16:23:29;;;;;;;;;;;;;;;;;;4968439;28;19926;-59
2022/11/01 16:26:02;;;;;;;;;;;;;;;;;;4965078;28;19926;-59
2022/11/01 16:28:28;;;;;;;;;;;;;;;;;;4962674;28;20366;-59
2022/11/01 16:30:54;;;;;;;;;;;;;;;;;;4963367;28;19943;-59
2022/11/01 16:33:23;;;;;;;;;;;;;;;;;;4969984;28;20388;-59
2022/11/01 16:35:50;;;;;;;;;;;;;;;;;;4966396;28;19925;-59
2022/11/01 16:38:23;;;;;;;;;;;;;;;;;;4965369;28;19918;-59
2022/11/01 16:40:56;;;;;;;;;;;;;;;;;;4973385;28;19944;-59
2022/11/01 16:43:21;;;;;;;;;;;;;;;;;;4971115;28;19918;-62
2022/11/01 16:45:48;;;;;;;;;;;;;;;;;;4969266;28;19918;-59
2022/11/01 16:48:20;;;;;;;;;;;;;;;;;;4967488;28;19922;-59
2022/11/01 16:50:45;;;;;;;;;;;;;;;;;;4965357;28;19918;-60
2022/11/01 16:53:11;;;;;;;;;;;;;;;;;;4970220;28;20404;-59
2022/11/01 16:55:38;;;;;;;;;;;;;;;;;;4967544;28;19926;-60
2022/11/01 16:58:03;;;;;;;;;;;;;;;;;;4965184;28;20304;-60
2022/11/01 17:00:30;;;;;;;;;;;;;;;;;;4972275;28;19922;-60
2022/11/01 17:02:56;;;;;;;;;;;;;;;;;;4969261;28;19925;-59